Time;durP1;ratioP1;P1;durP2;ratioP2;P2;SDS_P1;SDS_P2;PMS_P1;PMS_P2;Temp;Humidity;BMP_temperature;BMP_pressure;BME280_temperature;BME280_humidity;BME280_pressure;Samples;Min_cycle;Max_cycle;Signal;HPM_P1;HPM_P2
2022/07/02 00:01:06;;;;;;;9.60;9.30;;;13.20;99.90;;;;;;5056122;28;20233;-77
2022/07/02 00:03:36;;;;;;;9.80;9.50;;;13.10;99.90;;;;;;5057604;28;20235;-79
2022/07/02 00:06:07;;;;;;;9.47;9.17;;;13.10;99.90;;;;;;5057771;28;20234;-80
2022/07/02 00:08:35;;;;;;;9.60;9.30;;;13.10;99.90;;;;;;5058017;28;20259;-80
2022/07/02 00:11:04;;;;;;;9.70;9.40;;;13.00;99.90;;;;;;5057785;28;20241;-80
2022/07/02 00:13:32;;;;;;;9.70;9.40;;;13.00;99.90;;;;;;5057370;28;20242;-80
2022/07/02 00:16:01;;;;;;;9.60;9.30;;;12.90;99.90;;;;;;5058984;28;20254;-80
2022/07/02 00:18:30;;;;;;;9.70;9.40;;;12.90;99.90;;;;;;5057209;28;20237;-78
2022/07/02 00:20:58;;;;;;;9.50;9.20;;;12.90;99.90;;;;;;5056132;28;20235;-77
2022/07/02 00:23:25;;;;;;;9.20;8.90;;;12.90;99.90;;;;;;5055801;28;20321;-78
2022/07/02 00:25:58;;;;;;;9.67;9.37;;;12.90;99.90;;;;;;5055788;28;20235;-78
2022/07/02 00:28:27;;;;;;;9.60;9.30;;;12.90;99.90;;;;;;5055725;28;20218;-78
2022/07/02 00:30:56;;;;;;;9.67;9.37;;;12.90;99.90;;;;;;5055444;28;20235;-80
2022/07/02 00:33:25;;;;;;;9.40;9.10;;;12.90;99.90;;;;;;5056350;28;20249;-78
2022/07/02 00:35:53;;;;;;;9.57;9.27;;;12.80;99.90;;;;;;5055480;28;20226;-77
2022/07/02 00:38:20;;;;;;;9.67;9.37;;;12.80;99.90;;;;;;5055412;28;20703;-78
2022/07/02 00:40:49;;;;;;;9.37;9.07;;;12.80;99.90;;;;;;5055220;28;20231;-78
2022/07/02 00:43:18;;;;;;;9.83;9.53;;;12.80;99.90;;;;;;5055352;28;20330;-78
2022/07/02 00:45:45;;;;;;;9.77;9.47;;;12.80;99.90;;;;;;5055342;28;20234;-78
2022/07/02 00:48:15;;;;;;;9.90;9.60;;;12.80;99.90;;;;;;5055324;28;20313;-78
2022/07/02 00:50:43;;;;;;;10.00;9.70;;;12.80;99.90;;;;;;5055350;28;20227;-77
2022/07/02 00:53:10;;;;;;;9.87;9.57;;;12.80;99.90;;;;;;5054787;28;20264;-77
2022/07/02 00:55:38;;;;;;;9.83;9.53;;;12.70;99.90;;;;;;5054965;28;20227;-78
2022/07/02 00:58:06;;;;;;;9.60;9.30;;;12.70;99.90;;;;;;5055208;28;20272;-78
2022/07/02 01:00:33;;;;;;;9.73;9.43;;;12.70;99.90;;;;;;5055134;28;20288;-78
2022/07/02 01:03:01;;;;;;;9.60;9.30;;;12.60;99.90;;;;;;5055567;28;20237;-77
2022/07/02 01:05:30;;;;;;;9.70;9.40;;;12.60;99.90;;;;;;5054680;28;20234;-78
2022/07/02 01:10:59;;;;;;;9.80;9.50;;;12.50;99.90;;;;;;5012818;28;20236;-77
2022/07/02 01:13:29;;;;;;;10.00;9.70;;;12.50;99.90;;;;;;5012745;28;20247;-78
2022/07/02 01:15:56;;;;;;;10.00;9.70;;;12.50;99.90;;;;;;5032288;28;20231;-77
2022/07/02 01:18:23;;;;;;;10.10;9.80;;;12.50;99.90;;;;;;5055334;28;20258;-77
2022/07/02 01:20:52;;;;;;;9.90;9.60;;;12.40;99.90;;;;;;5056909;28;20223;-77
2022/07/02 01:23:21;;;;;;;10.30;10.00;;;12.40;99.90;;;;;;5059198;28;20238;-77
2022/07/02 01:25:53;;;;;;;10.10;9.80;;;12.40;99.90;;;;;;5056635;28;20253;-77
2022/07/02 01:28:21;;;;;;;10.30;10.00;;;12.40;99.90;;;;;;5055810;28;20233;-77
2022/07/02 01:30:51;;;;;;;10.10;9.80;;;12.30;99.90;;;;;;5054731;28;20238;-78
2022/07/02 01:33:18;;;;;;;10.03;9.73;;;12.30;99.90;;;;;;5054432;28;20650;-78
2022/07/02 01:35:46;;;;;;;10.10;9.80;;;12.30;99.90;;;;;;5054439;28;20321;-77
2022/07/02 01:38:13;;;;;;;9.90;9.60;;;12.30;99.90;;;;;;5054781;28;20230;-78
2022/07/02 01:40:42;;;;;;;9.90;9.60;;;12.30;99.90;;;;;;5054597;28;20238;-77
2022/07/02 01:43:09;;;;;;;9.80;9.50;;;12.30;99.90;;;;;;5054265;28;20234;-77
2022/07/02 01:45:37;;;;;;;9.67;9.37;;;12.30;99.90;;;;;;5053395;28;20235;-78
2022/07/02 01:48:05;;;;;;;9.83;9.53;;;12.20;99.90;;;;;;5054325;28;20702;-78
2022/07/02 01:50:36;;;;;;;9.90;9.60;;;12.20;99.90;;;;;;5054588;28;20219;-77
2022/07/02 01:53:04;;;;;;;9.83;9.53;;;12.20;99.90;;;;;;5054526;28;20690;-78
2022/07/02 01:55:31;;;;;;;9.83;9.53;;;12.20;99.90;;;;;;5054273;28;20234;-78
2022/07/02 01:58:00;;;;;;;10.00;9.70;;;12.20;99.90;;;;;;5054665;28;20241;-78
2022/07/02 02:00:29;;;;;;;9.83;9.53;;;12.10;99.90;;;;;;5054244;28;20226;-78
2022/07/02 02:02:56;;;;;;;9.90;9.60;;;12.10;99.90;;;;;;5054235;28;20235;-78
2022/07/02 02:05:24;;;;;;;9.53;9.23;;;12.10;99.90;;;;;;5053657;28;20242;-78
2022/07/02 02:07:51;;;;;;;9.50;9.20;;;12.10;99.90;;;;;;5054477;28;20226;-78
2022/07/02 02:10:18;;;;;;;9.60;9.30;;;12.00;99.90;;;;;;5053836;28;20237;-78
2022/07/02 02:12:46;;;;;;;9.60;9.30;;;12.00;99.90;;;;;;5054068;28;20264;-78
2022/07/02 02:15:22;;;;;;;9.60;9.30;;;12.00;99.90;;;;;;5053645;28;20239;-78
2022/07/02 02:18:00;;;;;;;9.60;9.30;;;12.00;99.90;;;;;;5054409;28;20706;-78
2022/07/02 02:20:27;;;;;;;9.70;9.40;;;12.00;99.90;;;;;;5054121;28;20227;-78
2022/07/02 02:22:55;;;;;;;9.70;9.40;;;11.90;99.90;;;;;;5053701;28;20317;-78
2022/07/02 02:25:22;;;;;;;10.00;9.70;;;11.90;99.90;;;;;;5053564;28;20285;-78
2022/07/02 02:27:51;;;;;;;9.70;9.40;;;11.90;99.90;;;;;;5053863;28;20230;-78
2022/07/02 02:30:20;;;;;;;9.70;9.40;;;11.90;99.90;;;;;;5053889;28;20226;-77
2022/07/02 02:32:47;;;;;;;10.00;9.70;;;11.80;99.90;;;;;;5053818;28;20337;-77
2022/07/02 02:35:15;;;;;;;9.77;9.47;;;11.80;99.90;;;;;;5053304;28;20377;-77
2022/07/02 02:37:42;;;;;;;9.80;9.50;;;11.80;99.90;;;;;;5053939;28;20329;-78
2022/07/02 02:40:11;;;;;;;9.93;9.63;;;11.80;99.90;;;;;;5053914;28;20305;-78
2022/07/02 02:42:38;;;;;;;9.83;9.53;;;11.80;99.90;;;;;;5053896;28;20329;-78
2022/07/02 02:45:07;;;;;;;9.80;9.50;;;11.80;99.90;;;;;;5053704;28;20329;-78
2022/07/02 02:47:36;;;;;;;10.40;10.10;;;11.80;99.90;;;;;;5053510;28;20265;-78
2022/07/02 02:50:05;;;;;;;10.37;10.07;;;11.80;99.90;;;;;;5053380;28;20327;-78
2022/07/02 02:52:32;;;;;;;10.30;10.00;;;11.80;99.90;;;;;;5053011;28;20258;-77
2022/07/02 02:55:00;;;;;;;10.27;9.97;;;11.80;99.90;;;;;;5053114;28;20235;-78
2022/07/02 02:57:28;;;;;;;10.40;10.10;;;11.70;99.90;;;;;;5052803;28;20231;-77
2022/07/02 02:59:56;;;;;;;10.30;10.00;;;11.70;99.90;;;;;;5053112;28;20226;-78
2022/07/02 03:02:26;;;;;;;10.50;10.20;;;11.70;99.90;;;;;;5052851;28;20285;-76
2022/07/02 03:04:56;;;;;;;10.57;10.27;;;11.70;99.90;;;;;;5052641;28;20231;-76
2022/07/02 03:07:23;;;;;;;10.40;10.10;;;11.70;99.90;;;;;;5053122;28;20234;-77
2022/07/02 03:09:50;;;;;;;10.63;10.33;;;11.80;99.90;;;;;;5053196;28;20227;-77
2022/07/02 03:12:18;;;;;;;10.33;10.03;;;11.80;99.90;;;;;;5052784;28;20298;-77
2022/07/02 03:14:45;;;;;;;10.50;10.20;;;11.80;99.90;;;;;;5051886;28;20679;-77
2022/07/02 03:17:13;;;;;;;10.50;10.20;;;11.70;99.90;;;;;;5052788;28;20234;-78
2022/07/02 03:19:40;;;;;;;10.40;10.10;;;11.70;99.90;;;;;;5052885;28;20298;-78
2022/07/02 03:22:09;;;;;;;10.30;10.00;;;11.70;99.90;;;;;;5052504;28;20230;-78
2022/07/02 03:24:37;;;;;;;10.43;10.13;;;11.70;99.90;;;;;;5052565;28;20239;-78
2022/07/02 03:27:05;;;;;;;10.40;10.10;;;11.70;99.90;;;;;;5052584;28;20257;-78
2022/07/02 03:29:32;;;;;;;10.50;10.20;;;11.70;99.90;;;;;;5052451;28;20223;-77
2022/07/02 03:31:59;;;;;;;10.50;10.20;;;11.70;99.90;;;;;;5052362;28;20254;-78
2022/07/02 03:34:27;;;;;;;10.40;10.10;;;11.70;99.90;;;;;;5052037;28;20234;-78
2022/07/02 03:36:54;;;;;;;10.23;9.93;;;11.60;99.90;;;;;;5052424;28;20223;-78
2022/07/02 03:39:23;;;;;;;10.30;10.00;;;11.60;99.90;;;;;;5052587;28;20240;-78
2022/07/02 03:41:50;;;;;;;10.40;10.10;;;11.60;99.90;;;;;;5052369;28;20234;-77
2022/07/02 03:44:18;;;;;;;10.30;10.00;;;11.60;99.90;;;;;;5051951;28;20242;-77
2022/07/02 03:46:46;;;;;;;10.30;10.00;;;11.60;99.90;;;;;;5052378;28;20317;-78
2022/07/02 03:49:13;;;;;;;10.03;9.73;;;11.60;99.90;;;;;;5052498;28;20231;-78
2022/07/02 03:51:40;;;;;;;10.40;10.10;;;11.60;99.90;;;;;;5052420;28;20242;-78
2022/07/02 03:54:08;;;;;;;10.20;9.90;;;11.60;99.90;;;;;;5052060;28;20312;-78
2022/07/02 03:56:37;;;;;;;10.30;10.00;;;11.60;99.90;;;;;;5051821;28;20733;-78
2022/07/02 03:59:04;;;;;;;10.73;10.43;;;11.60;99.90;;;;;;5052165;28;20227;-77
2022/07/02 04:01:32;;;;;;;10.30;10.00;;;11.60;99.90;;;;;;5052227;28;20238;-77
2022/07/02 04:03:59;;;;;;;10.50;10.20;;;11.70;99.90;;;;;;5052231;28;20238;-78
2022/07/02 04:06:26;;;;;;;10.40;10.10;;;11.70;99.90;;;;;;5052282;28;20235;-77
2022/07/02 04:08:54;;;;;;;10.50;10.20;;;11.70;99.90;;;;;;5054465;28;20237;-78
2022/07/02 04:11:21;;;;;;;10.43;10.13;;;11.70;99.90;;;;;;5055701;28;20317;-78
2022/07/02 04:13:50;;;;;;;10.30;10.00;;;11.70;99.90;;;;;;5055437;28;20329;-78
2022/07/02 04:16:18;;;;;;;10.13;9.83;;;11.70;99.90;;;;;;5055450;28;20273;-78
2022/07/02 04:18:45;;;;;;;10.50;10.20;;;11.70;99.90;;;;;;5055457;28;20238;-79
2022/07/02 04:21:12;;;;;;;10.47;10.17;;;11.80;99.90;;;;;;5055891;28;20449;-78
2022/07/02 04:23:43;;;;;;;10.33;10.03;;;11.90;99.90;;;;;;5054848;28;20674;-78
2022/07/02 04:26:10;;;;;;;10.33;10.03;;;11.90;99.90;;;;;;5054924;28;20227;-78
2022/07/02 04:28:38;;;;;;;10.70;10.40;;;11.90;99.90;;;;;;5056659;28;20235;-79
2022/07/02 04:31:07;;;;;;;10.50;10.20;;;11.90;99.90;;;;;;5056898;28;20322;-78
2022/07/02 04:33:34;;;;;;;10.37;10.07;;;11.90;99.90;;;;;;5055073;28;20243;-78
2022/07/02 04:36:02;;;;;;;10.43;10.13;;;12.00;99.90;;;;;;5055413;28;20372;-77
2022/07/02 04:38:29;;;;;;;10.30;10.00;;;12.00;99.90;;;;;;5055631;28;20223;-77
2022/07/02 04:40:56;;;;;;;9.93;9.63;;;12.10;99.90;;;;;;5055608;28;20238;-77
2022/07/02 04:43:24;;;;;;;10.40;10.10;;;12.10;99.90;;;;;;5055397;28;20243;-77
2022/07/02 04:45:51;;;;;;;10.33;10.03;;;12.20;99.90;;;;;;5054796;28;20231;-77
2022/07/02 04:48:20;;;;;;;10.33;10.03;;;12.30;99.90;;;;;;5054851;28;20222;-77
2022/07/02 04:50:48;;;;;;;10.40;10.10;;;12.40;99.90;;;;;;5055013;28;20233;-80
2022/07/02 04:53:15;;;;;;;10.37;10.07;;;12.40;99.90;;;;;;5056974;28;20248;-78
2022/07/02 04:55:42;;;;;;;10.40;10.10;;;12.50;99.90;;;;;;5058888;28;20230;-78
2022/07/02 04:58:10;;;;;;;10.40;10.10;;;12.60;99.90;;;;;;5058661;28;20233;-78
2022/07/02 05:00:37;;;;;;;10.20;9.90;;;12.70;99.90;;;;;;5057570;28;20231;-78
2022/07/02 05:03:05;;;;;;;10.17;9.87;;;12.80;99.90;;;;;;5062619;28;20237;-78
2022/07/02 05:05:34;;;;;;;10.20;9.90;;;12.90;99.90;;;;;;5060971;28;20226;-78
2022/07/02 05:08:01;;;;;;;10.20;9.90;;;13.00;99.90;;;;;;5056121;28;20229;-78
2022/07/02 05:10:29;;;;;;;10.20;9.90;;;13.10;99.90;;;;;;5056186;28;20235;-78
2022/07/02 05:12:56;;;;;;;10.20;9.90;;;13.20;99.90;;;;;;5055330;28;20239;-78
2022/07/02 05:15:24;;;;;;;10.50;10.20;;;13.40;99.90;;;;;;5095812;22;20242;-81
2022/07/02 05:17:52;;;;;;;10.20;9.90;;;13.50;99.90;;;;;;5080179;28;20230;-81
2022/07/02 05:20:19;;;;;;;10.17;9.87;;;13.50;99.90;;;;;;5080147;28;20292;-82
2022/07/02 05:22:50;;;;;;;10.10;9.80;;;13.60;99.90;;;;;;5080119;28;20312;-81
2022/07/02 05:25:18;;;;;;;10.30;10.00;;;13.60;99.90;;;;;;5062978;28;21218;-81
2022/07/02 05:27:46;;;;;;;10.30;10.00;;;13.60;99.90;;;;;;5059824;28;20262;-82
2022/07/02 05:30:14;;;;;;;10.50;10.20;;;13.70;99.90;;;;;;5060047;28;20318;-82
2022/07/02 05:32:41;;;;;;;10.27;9.97;;;13.70;99.90;;;;;;5059382;28;20330;-82
2022/07/02 05:35:10;;;;;;;10.40;10.10;;;13.80;99.90;;;;;;5058439;28;20238;-81
2022/07/02 05:37:40;;;;;;;10.47;10.17;;;13.80;99.90;;;;;;5059023;28;20242;-81
2022/07/02 05:40:11;;;;;;;10.30;10.00;;;13.90;99.90;;;;;;5059146;28;20223;-81
2022/07/02 05:42:39;;;;;;;10.38;10.07;;;14.00;99.90;;;;;;5059665;28;20773;-80
2022/07/02 05:45:07;;;;;;;10.20;9.90;;;14.10;99.90;;;;;;5058613;28;20235;-81
2022/07/02 05:47:35;;;;;;;10.27;9.98;;;14.20;99.90;;;;;;5059274;28;20223;-81
2022/07/02 05:50:03;;;;;;;10.10;9.80;;;14.30;99.90;;;;;;5059726;28;20234;-80
2022/07/02 05:52:38;;;;;;;9.90;9.60;;;14.50;99.90;;;;;;5059305;28;20239;-81
2022/07/02 05:55:08;;;;;;;9.70;9.40;;;14.60;99.90;;;;;;5058826;28;20270;-81
2022/07/02 05:57:36;;;;;;;10.13;9.82;;;14.70;99.90;;;;;;5059667;28;20273;-80
2022/07/02 06:00:09;;;;;;;9.98;9.68;;;14.90;99.90;;;;;;5059586;28;20231;-81
2022/07/02 06:02:38;;;;;;;10.00;9.70;;;15.10;99.90;;;;;;5059505;28;20266;-81
2022/07/02 06:07:51;;;;;;;9.80;9.50;;;15.30;99.90;;;;;;5057318;28;20225;-81
2022/07/02 06:10:21;;;;;;;10.05;9.75;;;15.40;99.90;;;;;;5059627;28;20238;-81
2022/07/02 06:12:51;;;;;;;9.90;9.60;;;15.40;99.90;;;;;;5061005;28;20338;-80
2022/07/02 06:15:19;;;;;;;10.10;9.80;;;15.50;99.90;;;;;;5059631;28;20243;-80
2022/07/02 06:17:47;;;;;;;10.10;9.80;;;15.60;99.90;;;;;;5059502;28;20241;-81
2022/07/02 06:20:16;;;;;;;10.20;9.90;;;15.70;99.90;;;;;;5058658;28;20277;-80
2022/07/02 06:22:43;;;;;;;10.07;9.77;;;15.90;99.90;;;;;;5059020;28;20278;-81
2022/07/02 06:25:11;;;;;;;10.15;9.85;;;16.00;99.90;;;;;;5058450;28;20234;-81
2022/07/02 06:27:40;;;;;;;10.15;9.85;;;16.20;99.90;;;;;;5058359;28;20230;-81
2022/07/02 06:30:09;;;;;;;10.25;9.95;;;16.30;99.90;;;;;;5058193;28;20347;-80
2022/07/02 06:32:37;;;;;;;10.20;9.90;;;16.40;99.90;;;;;;5063210;28;20302;-79
2022/07/02 06:35:06;;;;;;;10.23;9.93;;;16.50;99.90;;;;;;5072372;28;20234;-80
2022/07/02 06:37:33;;;;;;;10.20;9.90;;;16.60;99.90;;;;;;5060250;28;20262;-81
2022/07/02 06:40:01;;;;;;;10.20;9.90;;;16.70;99.90;;;;;;5059125;28;20239;-81
2022/07/02 06:42:29;;;;;;;10.40;10.10;;;16.80;99.90;;;;;;5058752;28;20295;-81
2022/07/02 06:44:59;;;;;;;10.02;9.73;;;17.00;99.90;;;;;;5058841;28;20307;-81
2022/07/02 06:47:28;;;;;;;10.30;10.00;;;17.10;99.90;;;;;;5059034;28;20319;-80
2022/07/02 06:49:56;;;;;;;10.13;9.82;;;17.30;99.90;;;;;;5059462;28;20234;-80
2022/07/02 06:52:25;;;;;;;10.10;9.80;;;17.40;99.90;;;;;;5062688;28;20242;-80
2022/07/02 06:54:52;;;;;;;10.20;9.90;;;17.50;99.90;;;;;;5059371;28;20328;-81
2022/07/02 06:57:22;;;;;;;10.40;10.10;;;17.60;99.90;;;;;;5061297;28;20306;-80
2022/07/02 06:59:50;;;;;;;10.30;10.00;;;17.70;99.90;;;;;;5058686;28;20262;-81
2022/07/02 07:02:19;;;;;;;10.25;9.95;;;17.90;99.90;;;;;;5059250;28;20234;-81
2022/07/02 07:04:46;;;;;;;10.07;9.77;;;18.00;99.90;;;;;;5058257;28;20337;-81
2022/07/02 07:07:14;;;;;;;10.13;9.82;;;18.10;99.90;;;;;;5058916;28;20249;-82
2022/07/02 07:09:41;;;;;;;10.00;9.70;;;18.30;99.90;;;;;;5058574;28;20235;-80
2022/07/02 07:12:10;;;;;;;10.10;9.80;;;18.40;99.90;;;;;;5058072;28;20639;-81
2022/07/02 07:14:37;;;;;;;10.30;10.00;;;18.50;99.90;;;;;;5057969;28;20249;-80
2022/07/02 07:17:05;;;;;;;10.50;10.20;;;18.60;99.90;;;;;;5058975;28;20234;-81
2022/07/02 07:19:34;;;;;;;10.57;10.27;;;18.70;99.90;;;;;;5059256;28;20245;-81
2022/07/02 07:22:05;;;;;;;10.60;10.30;;;18.80;99.90;;;;;;5058863;28;20286;-81
2022/07/02 07:24:32;;;;;;;10.60;10.30;;;18.90;99.90;;;;;;5057779;28;20329;-81
2022/07/02 07:27:00;;;;;;;10.30;10.00;;;19.10;99.90;;;;;;5058122;28;20233;-81
2022/07/02 07:29:27;;;;;;;10.73;10.43;;;19.10;99.90;;;;;;5058723;28;20265;-81
2022/07/02 07:31:55;;;;;;;11.00;10.70;;;19.20;99.90;;;;;;5058902;28;20269;-81
2022/07/02 07:34:22;;;;;;;10.82;10.52;;;19.20;99.90;;;;;;5057049;28;20234;-81
2022/07/02 07:36:53;;;;;;;11.00;10.70;;;19.20;99.90;;;;;;5057656;28;20219;-80
2022/07/02 07:39:20;;;;;;;10.70;10.40;;;19.20;99.90;;;;;;5058264;28;20235;-80
2022/07/02 07:41:48;;;;;;;10.55;10.25;;;19.30;99.90;;;;;;5057625;28;20310;-81
2022/07/02 07:44:15;;;;;;;10.40;10.10;;;19.40;99.90;;;;;;5060079;28;20239;-81
2022/07/02 07:46:44;;;;;;;10.27;9.98;;;19.50;99.90;;;;;;5061234;28;20225;-80
2022/07/02 07:49:12;;;;;;;10.40;10.10;;;19.60;99.90;;;;;;5062073;28;20241;-80
2022/07/02 07:51:44;;;;;;;10.70;10.40;;;19.60;99.90;;;;;;5061226;28;20294;-81
2022/07/02 07:54:13;;;;;;;10.32;10.02;;;19.60;99.90;;;;;;5060705;28;20239;-81
2022/07/02 07:56:41;;;;;;;10.50;10.20;;;19.70;99.90;;;;;;5060810;28;20687;-81
2022/07/02 07:59:12;;;;;;;10.70;10.40;;;19.90;99.90;;;;;;5060885;28;20329;-81
2022/07/02 08:01:39;;;;;;;10.40;10.10;;;20.10;99.90;;;;;;5061909;28;20259;-81
2022/07/02 08:04:07;;;;;;;10.70;10.40;;;20.30;99.90;;;;;;5062415;28;20322;-81
2022/07/02 08:06:34;;;;;;;10.70;10.40;;;20.40;99.90;;;;;;5061468;28;20265;-81
2022/07/02 08:09:02;;;;;;;10.80;10.50;;;20.40;99.90;;;;;;5062036;28;20250;-81
2022/07/02 08:11:31;;;;;;;10.45;10.15;;;20.50;99.90;;;;;;5061403;28;20282;-81
2022/07/02 08:13:58;;;;;;;10.80;10.50;;;20.50;99.90;;;;;;5059934;28;20237;-81
2022/07/02 08:16:26;;;;;;;10.57;10.27;;;20.60;99.90;;;;;;5060360;28;20262;-81
2022/07/02 08:18:54;;;;;;;10.60;10.30;;;20.70;99.90;;;;;;5060800;28;20237;-81
2022/07/02 08:21:21;;;;;;;10.20;9.90;;;20.90;99.90;;;;;;5060629;28;20655;-81
2022/07/02 08:23:49;;;;;;;10.48;10.18;;;21.00;99.90;;;;;;5059810;28;20261;-81
2022/07/02 08:26:17;;;;;;;10.20;9.90;;;21.10;99.90;;;;;;5060481;28;20290;-81
2022/07/02 08:28:46;;;;;;;10.25;9.95;;;21.10;99.90;;;;;;5061259;28;20294;-81
2022/07/02 08:31:13;;;;;;;10.73;10.43;;;21.10;99.90;;;;;;5060464;28;20269;-81
2022/07/02 08:33:41;;;;;;;10.57;10.27;;;21.10;99.90;;;;;;5060461;28;20298;-81
2022/07/02 08:36:09;;;;;;;10.82;10.52;;;21.20;99.90;;;;;;5061070;28;20237;-81
2022/07/02 08:38:37;;;;;;;11.10;10.80;;;21.40;99.90;;;;;;5060818;28;20227;-81
2022/07/02 08:41:05;;;;;;;10.88;10.57;;;21.50;99.90;;;;;;5065012;28;20281;-81
2022/07/02 08:43:34;;;;;;;10.90;10.60;;;21.50;99.90;;;;;;5062774;28;20282;-83
2022/07/02 08:46:05;;;;;;;10.80;10.50;;;21.60;99.90;;;;;;5062133;28;20255;-81
2022/07/02 08:48:34;;;;;;;10.90;10.60;;;21.70;99.90;;;;;;5061237;28;20231;-82
2022/07/02 08:51:05;;;;;;;10.95;10.65;;;21.90;99.90;;;;;;5061959;28;20235;-81
2022/07/02 08:53:32;;;;;;;10.80;10.50;;;22.10;99.90;;;;;;5069945;28;20223;-80
2022/07/02 08:56:02;;;;;;;10.73;10.43;;;22.30;99.90;;;;;;5067588;28;20243;-81
2022/07/02 08:58:29;;;;;;;11.10;10.80;;;22.30;99.90;;;;;;5062044;28;20241;-80
2022/07/02 09:00:59;;;;;;;11.20;10.90;;;22.40;99.90;;;;;;5061205;28;20267;-80
2022/07/02 09:03:29;;;;;;;11.05;10.75;;;22.50;99.90;;;;;;5059806;28;20269;-80
2022/07/02 09:05:57;;;;;;;11.15;10.85;;;22.60;99.90;;;;;;5059675;28;20235;-81
2022/07/02 09:08:25;;;;;;;11.02;10.73;;;22.80;99.90;;;;;;5060173;28;20233;-81
2022/07/02 09:10:53;;;;;;;11.10;10.80;;;22.80;99.90;;;;;;5060749;28;20227;-81
2022/07/02 09:13:22;;;;;;;11.10;10.80;;;22.80;99.90;;;;;;5059908;28;20326;-81
2022/07/02 09:15:51;;;;;;;11.10;10.80;;;22.90;99.90;;;;;;5059836;28;20285;-81
2022/07/02 09:18:19;;;;;;;11.15;10.85;;;23.00;99.90;;;;;;5060274;28;20234;-81
2022/07/02 09:20:48;;;;;;;11.13;10.82;;;23.10;99.90;;;;;;5061079;28;20237;-81
2022/07/02 09:23:20;;;;;;;11.13;10.82;;;23.10;99.90;;;;;;5060495;28;20231;-81
2022/07/02 09:25:48;;;;;;;11.15;10.85;;;23.10;99.90;;;;;;5060013;28;20226;-81
2022/07/02 09:28:18;;;;;;;11.05;10.75;;;23.20;99.90;;;;;;5060288;28;20231;-81
2022/07/02 09:30:46;;;;;;;10.90;10.60;;;23.10;99.90;;;;;;5060533;28;20726;-81
2022/07/02 09:33:31;;;;;;;11.32;11.02;;;23.20;99.90;;;;;;5059937;28;21195;-81
2022/07/02 09:36:02;;;;;;;11.10;10.80;;;23.00;99.90;;;;;;5058807;28;20237;-81
2022/07/02 09:38:29;;;;;;;11.05;10.75;;;23.00;99.90;;;;;;5059835;28;20238;-81
2022/07/02 09:41:01;;;;;;;10.90;10.60;;;23.10;99.90;;;;;;5059639;28;20231;-81
2022/07/02 09:43:31;;;;;;;11.05;10.75;;;23.10;99.90;;;;;;5059353;28;20250;-81
2022/07/02 09:46:01;;;;;;;10.85;10.55;;;23.00;99.90;;;;;;5059403;28;20257;-81
2022/07/02 09:48:30;;;;;;;11.10;10.80;;;23.10;99.90;;;;;;5059512;28;20329;-81
2022/07/02 09:51:05;;;;;;;11.00;10.70;;;23.40;99.90;;;;;;5061151;28;20321;-81
2022/07/02 09:53:35;;;;;;;11.10;10.80;;;23.60;99.90;;;;;;5059196;28;20246;-81
2022/07/02 09:56:06;;;;;;;10.98;10.68;;;23.70;99.90;;;;;;5059339;28;20229;-82
2022/07/02 09:58:34;;;;;;;11.18;10.88;;;23.50;99.90;;;;;;5059275;28;20287;-82
2022/07/02 10:01:04;;;;;;;11.00;10.70;;;23.60;99.90;;;;;;5059285;28;20223;-81
2022/07/02 10:03:32;;;;;;;11.18;10.88;;;23.90;99.90;;;;;;5059024;28;20268;-81
2022/07/02 10:06:01;;;;;;;10.80;10.50;;;24.00;99.90;;;;;;5057730;28;20241;-81
2022/07/02 10:08:31;;;;;;;10.85;10.55;;;24.20;99.90;;;;;;5059018;28;20263;-81
2022/07/02 10:10:59;;;;;;;11.20;10.90;;;24.70;99.90;;;;;;5059306;28;20238;-81
2022/07/02 10:13:27;;;;;;;10.80;10.50;;;24.80;99.90;;;;;;5058455;28;20243;-81
2022/07/02 10:16:01;;;;;;;10.75;10.45;;;25.00;99.90;;;;;;5058444;28;20334;-81
2022/07/02 10:18:30;;;;;;;11.30;11.00;;;24.90;99.90;;;;;;5059287;28;20226;-82
2022/07/02 10:20:59;;;;;;;11.05;10.75;;;24.70;99.90;;;;;;5059680;28;20248;-81
2022/07/02 10:23:29;;;;;;;11.15;10.85;;;24.70;99.90;;;;;;5059190;28;20261;-81
2022/07/02 10:25:57;;;;;;;11.50;11.10;;;24.90;99.90;;;;;;5058632;28;20235;-81
2022/07/02 10:28:25;;;;;;;11.25;10.95;;;25.10;99.90;;;;;;5059883;28;20329;-82
2022/07/02 10:30:55;;;;;;;11.00;10.70;;;24.80;99.90;;;;;;5058349;28;20329;-81
2022/07/02 10:33:32;;;;;;;10.63;10.32;;;24.60;99.90;;;;;;5058111;28;20262;-81
2022/07/02 10:36:02;;;;;;;11.00;10.70;;;24.80;99.90;;;;;;5058337;28;20329;-81
2022/07/02 10:38:33;;;;;;;10.80;10.50;;;24.90;99.90;;;;;;5059173;28;20235;-81
2022/07/02 10:41:01;;;;;;;11.00;10.70;;;25.20;99.90;;;;;;5060448;28;20250;-82
2022/07/02 10:43:33;;;;;;;11.07;10.77;;;25.50;99.90;;;;;;5058951;28;20231;-81
2022/07/02 10:46:06;;;;;;;11.25;10.95;;;25.40;99.90;;;;;;5059480;28;20289;-81
2022/07/02 10:48:48;;;;;;;10.63;10.32;;;25.50;99.90;;;;;;5059772;28;20311;-81
2022/07/02 10:51:19;;;;;;;10.40;10.10;;;25.60;99.90;;;;;;5058388;28;20333;-81
2022/07/02 10:53:52;;;;;;;10.80;10.50;;;25.80;99.90;;;;;;5058008;28;20246;-81
2022/07/02 10:56:21;;;;;;;10.80;10.50;;;26.00;99.90;;;;;;5057928;28;20280;-81
2022/07/02 10:58:48;;;;;;;10.80;10.50;;;26.20;99.90;;;;;;5058424;28;20261;-81
2022/07/02 11:01:18;;;;;;;10.85;10.55;;;26.30;99.90;;;;;;5058078;28;20254;-81
2022/07/02 11:03:57;;;;;;;10.70;10.40;;;26.60;99.90;;;;;;5058031;28;20262;-81
2022/07/02 11:06:26;;;;;;;10.80;10.50;;;26.80;99.90;;;;;;5057710;28;20314;-81
2022/07/02 11:08:58;;;;;;;11.00;10.70;;;26.40;99.90;;;;;;5058005;28;20313;-82
2022/07/02 11:11:52;;;;;;;11.00;10.70;;;26.00;99.90;;;;;;5069799;28;20298;-81
2022/07/02 11:16:50;;;;;;;10.98;10.68;;;25.80;99.90;;;;;;5052588;28;20241;-77
2022/07/02 11:19:20;;;;;;;10.88;10.57;;;25.70;99.90;;;;;;5056901;28;20235;-77
2022/07/02 11:21:49;;;;;;;10.68;10.38;;;25.90;99.90;;;;;;5057223;28;20226;-77
2022/07/02 11:24:21;;;;;;;10.82;10.52;;;26.20;99.90;;;;;;5056653;28;20290;-77
2022/07/02 11:26:49;;;;;;;10.93;10.63;;;26.40;99.90;;;;;;5037012;28;20230;-77
2022/07/02 11:29:17;;;;;;;11.02;10.73;;;26.50;99.90;;;;;;5036732;28;20307;-77
2022/07/02 11:31:47;;;;;;;11.00;10.70;;;26.30;99.90;;;;;;5036797;28;20278;-77
2022/07/02 11:34:16;;;;;;;10.88;10.57;;;26.30;99.90;;;;;;5036314;28;20334;-77
2022/07/02 11:36:44;;;;;;;10.88;10.57;;;26.30;99.90;;;;;;5036336;28;20385;-77
2022/07/02 11:39:14;;;;;;;10.80;10.50;;;26.30;99.90;;;;;;5037015;28;20231;-78
2022/07/02 11:41:44;;;;;;;11.00;10.70;;;26.40;99.90;;;;;;5036947;28;20338;-78
2022/07/02 11:44:17;;;;;;;10.93;10.63;;;26.40;99.90;;;;;;5038521;28;20235;-78
2022/07/02 11:46:49;;;;;;;10.60;10.30;;;26.50;99.90;;;;;;5037822;28;20231;-78
2022/07/02 11:49:18;;;;;;;10.57;10.27;;;26.90;99.90;;;;;;5036848;28;20337;-78
2022/07/02 11:51:47;;;;;;;10.60;10.30;;;27.30;99.90;;;;;;5038527;28;20242;-78
2022/07/02 11:54:15;;;;;;;10.48;10.18;;;27.40;99.90;;;;;;5039505;28;20275;-79
2022/07/02 11:56:46;;;;;;;10.40;10.10;;;27.40;99.90;;;;;;5039542;28;20238;-79
2022/07/02 11:59:16;;;;;;;10.80;10.50;;;27.50;99.90;;;;;;5039065;28;20318;-79
2022/07/02 12:01:46;;;;;;;10.75;10.45;;;27.40;99.90;;;;;;5039713;28;20235;-79
2022/07/02 12:04:15;;;;;;;10.75;10.45;;;27.40;99.90;;;;;;5040572;28;20236;-79
2022/07/02 12:06:45;;;;;;;10.80;10.50;;;27.70;99.90;;;;;;5039657;28;20227;-79
2022/07/02 12:09:15;;;;;;;10.75;10.45;;;28.10;99.90;;;;;;5039456;28;20285;-79
2022/07/02 12:11:47;;;;;;;10.73;10.43;;;28.00;99.90;;;;;;5048284;28;20231;-77
2022/07/02 12:14:16;;;;;;;10.60;10.30;;;28.10;99.90;;;;;;5043683;28;20251;-79
2022/07/02 12:16:46;;;;;;;10.70;10.40;;;28.30;99.90;;;;;;5039769;28;20227;-79
2022/07/02 12:19:16;;;;;;;10.60;10.30;;;28.50;99.90;;;;;;5040124;28;20235;-79
2022/07/02 12:21:45;;;;;;;10.60;10.30;;;28.60;99.90;;;;;;5040031;28;20250;-79
2022/07/02 12:24:22;;;;;;;10.70;10.40;;;28.50;99.90;;;;;;5041722;28;20219;-79
2022/07/02 12:26:55;;;;;;;10.82;10.52;;;28.30;99.90;;;;;;5040693;28;20249;-79
2022/07/02 12:32:11;;;;;;;10.63;10.32;;;28.60;99.90;;;;;;5060743;28;20319;-77
2022/07/02 12:34:42;;;;;;;10.50;10.20;;;28.50;99.90;;;;;;5059405;28;20289;-77
2022/07/02 12:37:22;;;;;;;10.48;10.18;;;28.50;99.90;;;;;;5058824;28;20250;-76
2022/07/02 12:39:50;;;;;;;10.48;10.18;;;28.50;99.90;;;;;;5060263;28;20219;-77
2022/07/02 12:42:21;;;;;;;10.80;10.50;;;28.30;99.90;;;;;;5058533;28;20258;-76
2022/07/02 12:44:58;;;;;;;10.77;10.48;;;28.00;99.90;;;;;;5059886;28;20258;-76
2022/07/02 12:47:29;;;;;;;10.70;10.40;;;27.80;99.90;;;;;;5060650;28;20222;-76
2022/07/02 12:49:59;;;;;;;10.80;10.50;;;27.80;99.90;;;;;;5057092;28;20236;-76
2022/07/02 12:52:30;;;;;;;10.85;10.55;;;28.00;99.90;;;;;;5053714;28;20247;-77